METAR AND TAF INFORMATION
METAR FOR LRTR
ADDS - METARS form results

(0611 UTC 17 October 2021)
Data provider http://aviationweather.gov/metar/data/
 
METAR text: LRTR 170600Z VRB02KT CAVOK 05/05 Q1021
Conditions at: LRTR (TIMISOARA/GIARMA, RO) observed 0600 UTC 17 October 2021
Temperature: 5.0°C (41°F)
Dewpoint: 5.0°C (41°F) [RH = 100%]
Pressure (altimeter): 30.15 inches Hg (1021.0 mb)
Winds: variable direction winds at 2 MPH (2 knots; 1.0 m/s)
Visibility: 6 or more miles (10+ km)
Ceiling: ceiling and visibility are OK
Clouds: unknown
Weather: no significant weather observed at this time

METAR text: LRTR 170530Z VRB01KT CAVOK 03/03 Q1021
Conditions at: LRTR (TIMISOARA/GIARMA, RO) observed 0530 UTC 17 October 2021
Temperature: 3.0°C (37°F)
Dewpoint: 3.0°C (37°F) [RH = 100%]
Pressure (altimeter): 30.15 inches Hg (1021.0 mb)
Winds: variable direction winds at 1 MPH (1 knots; 0.5 m/s)
Visibility: 6 or more miles (10+ km)
Ceiling: ceiling and visibility are OK
Clouds: unknown
Weather: no significant weather observed at this time

Forecast for: LRTR (TIMISOARA/GIARMA, RO)
Text: TAF LRTR 170500Z 1706/1806 36006KT CAVOK
Forecast period: 0600 UTC 17 October 2021 to 0600 UTC 18 October 2021
Forecast type: FROM: standard forecast or significant change
Winds: from the N (360 degrees) at 7 MPH (6 knots; 3.1 m/s)
Visibility: 6 or more miles (10+ km)
Ceiling: unknown
Clouds: missing
Weather: NSW  (no significant weather)
Text: PROB40
Forecast period: 0600 to 0800 UTC 17 October 2021
Forecast type: TEMPORARY: The following changes expected for less than half the time period
Visibility: 3 miles (5 km)
Ceiling: unknown
Clouds: missing
Weather: BR  (mist)
Text: TEMPO 1706/1708 5000 BR
Forecast period: 0000 to 0500 UTC 18 October 2021
Forecast type: TEMPORARY: The following changes expected for less than half the time period
Visibility: 3 miles (5 km)
Ceiling: unknown
Clouds: missing
Weather: BR  (mist)

 AIRPORT MAP

 RUNWAY INFORMATION
Runway 11 Runway length 11483 ft Runway width 148 ft
Runway elevation 340 ft Runway displaced threshold 0 ft Runway heading 110
Runway 29 Runway length 11483 ft Runway width 148 ft
Runway elevation 343 ft Runway displaced threshold 0 ft Runway heading 290

 AIRPORT FREQUENCIES
Type APP Name TIMISOARA Frequency 120.1 MHZ
Type GND Name TIMISOARA Frequency 121.6 MHZ
Type TWR Name TIMISOARA Frequency 120.1 MHZ

 AIRPORT NEAR NAVIGATION AIDS
Type NDB Name Timisoara Frequency 408 KHZ





Powered by Virtual Airlines Manager

Maps by Rafael Santos